createdAt,value
2023-05-14T00:02:02.225Z,21.40
2023-05-14T00:04:49.396Z,21.40
2023-05-14T00:07:36.999Z,21.40
2023-05-14T00:10:24.305Z,21.40
2023-05-14T00:13:11.668Z,21.40
2023-05-14T00:15:58.852Z,21.40
2023-05-14T00:18:46.122Z,21.40
2023-05-14T00:21:33.637Z,21.40
2023-05-14T00:24:20.867Z,21.40
2023-05-14T00:27:08.118Z,21.40
2023-05-14T00:29:55.328Z,21.30
2023-05-14T00:32:42.529Z,21.40
2023-05-14T00:35:30.439Z,21.30
2023-05-14T00:38:19.484Z,21.40
2023-05-14T00:41:06.767Z,21.30
2023-05-14T00:43:53.896Z,21.30
2023-05-14T00:46:41.323Z,21.40
2023-05-14T00:49:29.029Z,21.30
2023-05-14T00:52:16.940Z,21.30
2023-05-14T00:55:08.388Z,21.30
2023-05-14T00:57:57.961Z,21.30
2023-05-14T01:00:45.269Z,21.20
2023-05-14T01:03:33.429Z,21.20
2023-05-14T01:06:45.872Z,21.10
2023-05-14T01:09:42.649Z,21.00
2023-05-14T01:12:45.074Z,21.00
2023-05-14T01:15:34.764Z,21.00
2023-05-14T01:18:23.257Z,21.10
2023-05-14T01:21:40.899Z,21.10
2023-05-14T01:24:28.147Z,21.10
2023-05-14T01:27:18.042Z,21.10
2023-05-14T01:30:19.831Z,21.10
2023-05-14T01:33:11.918Z,21.00
2023-05-14T01:35:59.869Z,21.00
2023-05-14T01:38:49.588Z,21.00
2023-05-14T01:41:39.351Z,21.00
2023-05-14T01:44:26.708Z,21.00
2023-05-14T01:47:14.021Z,21.00
2023-05-14T01:50:01.239Z,21.00
2023-05-14T01:52:48.470Z,21.00
2023-05-14T01:55:35.746Z,21.00
2023-05-14T01:58:22.993Z,21.00
2023-05-14T02:01:10.248Z,20.90
2023-05-14T02:03:58.729Z,20.90
2023-05-14T02:06:46.022Z,20.90
2023-05-14T02:09:33.248Z,20.90
2023-05-14T02:12:20.440Z,20.90
2023-05-14T02:15:09.074Z,20.90
2023-05-14T02:17:56.325Z,20.90
2023-05-14T02:20:43.637Z,20.90
2023-05-14T02:23:40.311Z,20.80
2023-05-14T02:26:28.494Z,20.70
2023-05-14T02:29:16.164Z,20.70
2023-05-14T02:32:03.590Z,20.70
2023-05-14T02:34:50.878Z,20.80
2023-05-14T02:37:38.076Z,20.70
2023-05-14T02:40:25.762Z,20.70
2023-05-14T02:43:13.159Z,20.70
2023-05-14T02:46:00.465Z,20.70
2023-05-14T02:48:47.702Z,20.60
2023-05-14T02:51:34.983Z,20.60
2023-05-14T02:54:22.192Z,20.60
2023-05-14T02:57:09.405Z,20.50
2023-05-14T02:59:56.564Z,20.50
2023-05-14T03:02:44.781Z,20.40
2023-05-14T03:05:32.509Z,20.40
2023-05-14T03:08:19.680Z,20.40
2023-05-14T03:11:06.979Z,20.40
2023-05-14T03:13:54.202Z,20.30
2023-05-14T03:16:42.487Z,20.30
2023-05-14T03:19:29.825Z,20.20
2023-05-14T03:22:17.161Z,20.30
2023-05-14T03:25:04.644Z,20.30
2023-05-14T03:27:51.911Z,20.40
2023-05-14T03:30:40.041Z,20.40
2023-05-14T03:33:27.401Z,20.40
2023-05-14T03:36:14.593Z,20.40
2023-05-14T03:39:02.071Z,20.40
2023-05-14T03:41:49.325Z,20.40
2023-05-14T03:44:36.456Z,20.30
2023-05-14T03:47:23.885Z,20.30
2023-05-14T03:50:11.165Z,20.30
2023-05-14T03:52:58.399Z,20.40
2023-05-14T03:55:45.619Z,20.40
2023-05-14T03:58:32.904Z,20.30
2023-05-14T04:01:20.094Z,20.30
2023-05-14T04:04:07.412Z,20.40
2023-05-14T04:06:54.625Z,20.40
2023-05-14T04:09:41.936Z,20.40
2023-05-14T04:12:29.107Z,20.50
2023-05-14T04:15:16.388Z,20.50
2023-05-14T04:18:03.763Z,20.50
2023-05-14T04:20:51.065Z,20.50
2023-05-14T04:23:38.470Z,20.50
2023-05-14T04:26:26.237Z,20.50
2023-05-14T04:29:13.448Z,20.40
2023-05-14T04:32:00.994Z,20.40
2023-05-14T04:34:48.397Z,20.40
2023-05-14T04:37:35.851Z,20.40
2023-05-14T04:40:23.152Z,20.40
2023-05-14T04:43:10.860Z,20.30
2023-05-14T04:45:58.124Z,20.30
2023-05-14T04:48:45.433Z,20.30
2023-05-14T04:51:32.654Z,20.30
2023-05-14T04:54:19.940Z,20.30
2023-05-14T04:57:07.534Z,20.30
2023-05-14T04:59:54.784Z,20.30
2023-05-14T05:02:42.103Z,20.40
2023-05-14T05:05:29.381Z,20.50
2023-05-14T05:08:16.592Z,20.50
2023-05-14T05:11:04.164Z,20.50
2023-05-14T05:13:51.412Z,20.50
2023-05-14T05:16:38.818Z,20.50
2023-05-14T05:19:35.801Z,20.40
2023-05-14T05:22:27.416Z,20.40
2023-05-14T05:25:14.609Z,20.40
2023-05-14T05:28:01.823Z,20.40
2023-05-14T05:30:49.024Z,20.40
2023-05-14T05:33:36.355Z,20.50
2023-05-14T05:36:23.537Z,20.50
2023-05-14T05:39:10.733Z,20.50
2023-05-14T05:41:57.872Z,20.50
2023-05-14T05:44:45.176Z,20.50
2023-05-14T05:47:32.435Z,20.60
2023-05-14T05:50:20.150Z,20.60
2023-05-14T05:53:07.423Z,20.50
2023-05-14T05:55:54.604Z,20.60
2023-05-14T05:58:41.787Z,20.50
2023-05-14T06:01:29.506Z,20.50
2023-05-14T06:04:16.693Z,20.40
2023-05-14T06:07:04.396Z,20.40
2023-05-14T06:09:51.628Z,20.50
2023-05-14T06:12:38.890Z,20.50
2023-05-14T06:15:26.110Z,20.50
2023-05-14T06:18:13.400Z,20.50
2023-05-14T06:21:00.638Z,20.60
2023-05-14T06:23:47.848Z,20.60
2023-05-14T06:26:35.043Z,20.60
2023-05-14T06:29:22.307Z,20.60
2023-05-14T06:32:10.284Z,20.60
2023-05-14T06:34:57.589Z,20.60
2023-05-14T06:37:45.330Z,20.70
2023-05-14T06:40:32.552Z,20.70
2023-05-14T06:43:19.689Z,20.80
2023-05-14T06:46:07.208Z,20.80
2023-05-14T06:48:54.811Z,20.80
2023-05-14T06:51:42.597Z,20.80
2023-05-14T06:54:31.127Z,20.70
2023-05-14T06:57:18.310Z,20.70
2023-05-14T07:00:06.936Z,20.70
2023-05-14T07:02:54.133Z,20.70
2023-05-14T07:05:41.344Z,20.70
2023-05-14T07:08:28.550Z,20.60
2023-05-14T07:11:16.305Z,20.60
2023-05-14T07:14:03.571Z,20.60
2023-05-14T07:16:50.908Z,20.40
2023-05-14T07:19:38.124Z,20.40
2023-05-14T07:22:25.401Z,20.50
2023-05-14T07:25:12.868Z,20.60
2023-05-14T07:28:00.131Z,20.50
2023-05-14T07:30:47.318Z,20.60
2023-05-14T07:33:36.479Z,20.50
2023-05-14T07:36:23.811Z,20.60
2023-05-14T07:39:11.028Z,20.70
2023-05-14T07:41:58.372Z,20.70
2023-05-14T07:44:46.048Z,20.80
2023-05-14T07:47:33.367Z,20.70
2023-05-14T07:50:21.159Z,20.70
2023-05-14T07:53:08.413Z,20.70
2023-05-14T07:55:55.820Z,20.60
2023-05-14T07:58:43.909Z,20.60
2023-05-14T08:01:31.731Z,20.50
2023-05-14T08:04:18.971Z,20.60
2023-05-14T08:07:07.368Z,20.70
2023-05-14T08:09:54.657Z,20.80
2023-05-14T08:12:42.865Z,20.90
2023-05-14T08:15:30.284Z,21.10
2023-05-14T08:18:17.474Z,21.10
2023-05-14T08:21:04.873Z,21.10
2023-05-14T08:23:52.057Z,21.10
2023-05-14T08:26:39.221Z,21.30
2023-05-14T08:29:26.541Z,21.30
2023-05-14T08:32:22.537Z,21.40
2023-05-14T08:35:11.188Z,21.50
2023-05-14T08:37:58.483Z,21.60
2023-05-14T08:40:57.797Z,21.60
2023-05-14T08:43:57.017Z,21.70
2023-05-14T08:46:45.539Z,21.60
2023-05-14T08:49:44.567Z,21.60
2023-05-14T08:52:32.602Z,21.60
2023-05-14T08:55:20.680Z,21.50
2023-05-14T08:58:08.586Z,21.50
2023-05-14T09:00:56.614Z,21.40
2023-05-14T09:03:44.415Z,21.40
2023-05-14T09:06:32.484Z,21.50
2023-05-14T09:09:22.550Z,21.50
2023-05-14T09:12:10.478Z,21.50
2023-05-14T09:14:57.860Z,21.50
2023-05-14T09:17:47.996Z,21.60
2023-05-14T09:20:35.467Z,21.50
2023-05-14T09:23:25.584Z,21.70
2023-05-14T09:26:16.873Z,21.80
2023-05-14T09:29:04.288Z,21.90
2023-05-14T09:31:52.399Z,22.00
2023-05-14T09:34:40.623Z,21.90
2023-05-14T09:37:28.735Z,22.00
2023-05-14T09:40:17.629Z,21.90
2023-05-14T09:43:04.954Z,22.00
2023-05-14T09:45:52.939Z,22.00
2023-05-14T09:48:40.436Z,22.20
2023-05-14T09:51:31.649Z,22.30
2023-05-14T09:54:18.879Z,22.30
2023-05-14T09:57:06.303Z,22.20
2023-05-14T09:59:54.220Z,22.20
2023-05-14T10:02:44.081Z,22.20
2023-05-14T10:05:35.572Z,22.30
2023-05-14T10:08:27.667Z,22.40
2023-05-14T10:11:22.364Z,22.60
2023-05-14T10:14:28.768Z,22.50
2023-05-14T10:17:19.890Z,22.50
2023-05-14T10:20:10.140Z,22.50
2023-05-14T10:22:58.861Z,22.50
2023-05-14T10:25:46.230Z,22.70
2023-05-14T10:28:33.766Z,22.80
2023-05-14T10:31:24.055Z,22.90
2023-05-14T10:34:40.982Z,22.90
2023-05-14T10:37:30.117Z,23.00
2023-05-14T10:40:19.302Z,23.10
2023-05-14T10:43:08.697Z,23.00
2023-05-14T10:45:56.454Z,23.00
2023-05-14T10:48:44.228Z,23.00
2023-05-14T10:51:32.356Z,23.10
2023-05-14T10:54:19.553Z,23.20
2023-05-14T10:57:11.490Z,23.30
2023-05-14T11:00:00.316Z,23.40
2023-05-14T11:02:47.627Z,23.30
2023-05-14T11:05:37.309Z,23.40
2023-05-14T11:08:29.413Z,23.20
2023-05-14T11:11:19.217Z,23.30
2023-05-14T11:14:08.465Z,23.50
2023-05-14T11:16:58.018Z,23.50
2023-05-14T11:19:45.977Z,23.70
2023-05-14T11:22:34.032Z,23.70
2023-05-14T11:25:22.857Z,23.80
2023-05-14T11:28:10.552Z,23.90
2023-05-14T11:30:57.784Z,24.00
2023-05-14T11:33:45.015Z,24.00
2023-05-14T11:36:32.338Z,24.10
2023-05-14T11:39:19.658Z,24.10
2023-05-14T11:42:12.590Z,23.90
2023-05-14T11:44:59.943Z,24.00
2023-05-14T11:47:47.169Z,24.10
2023-05-14T11:50:36.837Z,24.20
2023-05-14T11:53:29.579Z,24.30
2023-05-14T11:56:16.828Z,24.30
2023-05-14T11:59:04.117Z,24.30
2023-05-14T12:01:52.499Z,24.30
2023-05-14T12:04:40.630Z,24.30
2023-05-14T12:07:30.643Z,24.40
2023-05-14T12:10:17.951Z,24.50
2023-05-14T12:13:07.287Z,24.40
2023-05-14T12:15:56.783Z,24.50
2023-05-14T12:18:44.441Z,24.60
2023-05-14T12:21:32.083Z,24.50
2023-05-14T12:24:26.818Z,24.60
2023-05-14T12:27:14.032Z,24.70
2023-05-14T12:30:20.033Z,24.90
2023-05-14T12:33:08.434Z,24.90
2023-05-14T12:36:17.482Z,25.00
2023-05-14T12:39:08.178Z,25.00
2023-05-14T12:41:55.391Z,25.10
2023-05-14T12:44:42.717Z,25.10
2023-05-14T12:47:30.081Z,25.20
2023-05-14T12:50:17.464Z,25.30
2023-05-14T12:53:05.560Z,25.20
2023-05-14T12:55:53.090Z,25.20
2023-05-14T12:58:40.597Z,25.20
2023-05-14T13:01:27.919Z,25.30
2023-05-14T13:04:15.212Z,25.50
2023-05-14T13:07:02.525Z,25.60
2023-05-14T13:09:49.729Z,25.60
2023-05-14T13:12:36.962Z,25.80
2023-05-14T13:15:24.445Z,25.80
2023-05-14T13:18:11.732Z,25.90
2023-05-14T13:20:58.953Z,26.00
2023-05-14T13:23:46.717Z,26.00
2023-05-14T13:26:33.971Z,26.00
2023-05-14T13:29:24.003Z,26.10
2023-05-14T13:32:11.307Z,26.20
2023-05-14T13:34:58.488Z,26.20
2023-05-14T13:37:47.490Z,26.30
2023-05-14T13:40:34.689Z,26.40
2023-05-14T13:43:21.925Z,26.40
2023-05-14T13:46:09.226Z,26.50
2023-05-14T13:48:56.593Z,26.60
2023-05-14T13:51:44.000Z,26.70
2023-05-14T13:54:31.148Z,26.60
2023-05-14T13:57:19.697Z,26.60
2023-05-14T14:00:08.020Z,26.50
2023-05-14T14:02:55.231Z,26.60
2023-05-14T14:05:42.573Z,26.60
2023-05-14T14:08:31.146Z,26.80
2023-05-14T14:11:18.614Z,27.00
2023-05-14T14:14:06.022Z,27.10
2023-05-14T14:16:53.265Z,27.30
2023-05-14T14:19:40.872Z,27.30
2023-05-14T14:22:29.193Z,27.20
2023-05-14T14:25:16.678Z,27.30
2023-05-14T14:28:04.049Z,27.40
2023-05-14T14:30:51.255Z,27.40
2023-05-14T14:33:38.539Z,27.50
2023-05-14T14:36:25.771Z,27.50
2023-05-14T14:39:12.996Z,27.50
2023-05-14T14:42:00.164Z,27.50
2023-05-14T14:44:47.402Z,27.60
2023-05-14T14:47:34.742Z,27.60
2023-05-14T14:50:21.941Z,27.60
2023-05-14T14:53:09.328Z,27.60
2023-05-14T14:55:57.608Z,27.60
2023-05-14T14:58:45.622Z,27.40
2023-05-14T15:01:32.917Z,27.40
2023-05-14T15:04:20.135Z,27.40
2023-05-14T15:07:07.384Z,27.40
2023-05-14T15:09:54.647Z,27.30
2023-05-14T15:12:41.940Z,27.40
2023-05-14T15:15:29.150Z,27.50
2023-05-14T15:18:16.434Z,27.60
2023-05-14T15:21:03.742Z,27.60
2023-05-14T15:23:50.925Z,27.60
2023-05-14T15:26:38.111Z,27.50
2023-05-14T15:29:25.459Z,27.40
2023-05-14T15:32:12.673Z,27.50
2023-05-14T15:34:59.917Z,27.50
2023-05-14T15:37:47.095Z,27.60
2023-05-14T15:40:35.250Z,27.70
2023-05-14T15:43:22.485Z,27.90
2023-05-14T15:46:10.730Z,28.00
2023-05-14T15:48:58.301Z,28.30
2023-05-14T15:51:45.642Z,28.50
2023-05-14T15:54:32.878Z,28.70
2023-05-14T15:57:20.284Z,28.90
2023-05-14T16:00:11.161Z,28.90
2023-05-14T16:02:58.675Z,28.90
2023-05-14T16:05:46.244Z,28.90
2023-05-14T16:08:33.559Z,29.00
2023-05-14T16:11:21.573Z,29.10
2023-05-14T16:14:08.816Z,29.20
2023-05-14T16:16:56.381Z,29.30
2023-05-14T16:19:43.651Z,29.30
2023-05-14T16:22:33.280Z,29.40
2023-05-14T16:25:20.535Z,29.40
2023-05-14T16:28:08.045Z,29.30
2023-05-14T16:30:55.232Z,29.20
2023-05-14T16:33:42.488Z,29.40
2023-05-14T16:36:29.842Z,29.60
2023-05-14T16:39:17.534Z,29.90
2023-05-14T16:42:04.965Z,30.20
2023-05-14T16:44:52.130Z,30.40
2023-05-14T16:47:39.351Z,30.80
2023-05-14T16:50:26.979Z,30.70
2023-05-14T16:53:14.152Z,30.70
2023-05-14T16:56:01.432Z,30.60
2023-05-14T16:58:48.606Z,30.70
2023-05-14T17:01:35.843Z,30.60
2023-05-14T17:04:25.181Z,30.40
2023-05-14T17:07:12.500Z,29.80
2023-05-14T17:10:00.692Z,29.40
2023-05-14T17:12:48.363Z,29.20
2023-05-14T17:15:36.396Z,29.50
2023-05-14T17:18:23.601Z,29.90
2023-05-14T17:21:10.807Z,30.30
2023-05-14T17:23:58.228Z,30.40
2023-05-14T17:26:45.481Z,30.50
2023-05-14T17:29:32.830Z,30.50
2023-05-14T17:32:20.055Z,30.50
2023-05-14T17:35:09.660Z,30.50
2023-05-14T17:37:57.890Z,30.00
2023-05-14T17:40:46.132Z,29.60
2023-05-14T17:43:34.501Z,29.00
2023-05-14T17:46:21.924Z,28.60
2023-05-14T17:49:09.139Z,28.10
2023-05-14T17:51:56.412Z,27.70
2023-05-14T17:54:43.717Z,27.40
2023-05-14T17:57:31.023Z,27.20
2023-05-14T18:00:18.425Z,26.90
2023-05-14T18:03:05.877Z,26.80
2023-05-14T18:05:53.247Z,26.50
2023-05-14T18:08:41.007Z,26.30
2023-05-14T18:11:33.649Z,26.00
2023-05-14T18:14:20.876Z,25.80
2023-05-14T18:17:08.217Z,25.60
2023-05-14T18:19:55.569Z,25.40
2023-05-14T18:22:42.797Z,25.30
2023-05-14T18:25:30.113Z,25.20
2023-05-14T18:28:18.973Z,25.00
2023-05-14T18:31:06.267Z,24.80
2023-05-14T18:33:53.772Z,24.60
2023-05-14T18:36:41.183Z,24.50
2023-05-14T18:39:28.504Z,24.40
2023-05-14T18:42:16.758Z,24.40
2023-05-14T18:45:04.648Z,24.30
2023-05-14T18:47:52.165Z,24.20
2023-05-14T18:50:39.653Z,24.20
2023-05-14T18:53:27.330Z,24.10
2023-05-14T18:56:14.585Z,24.00
2023-05-14T18:59:01.905Z,24.00
2023-05-14T19:01:49.089Z,24.00
2023-05-14T19:04:50.621Z,23.90
2023-05-14T19:07:39.023Z,23.90
2023-05-14T19:10:26.329Z,23.90
2023-05-14T19:13:13.533Z,23.80
2023-05-14T19:16:00.950Z,23.70
2023-05-14T19:18:48.626Z,23.60
2023-05-14T19:21:35.922Z,23.50
2023-05-14T19:24:23.138Z,23.50
2023-05-14T19:27:11.139Z,23.40
2023-05-14T19:29:58.310Z,23.30
2023-05-14T19:32:45.611Z,23.20
2023-05-14T19:35:32.926Z,23.10
2023-05-14T19:38:20.967Z,23.10
2023-05-14T19:41:08.180Z,23.10
2023-05-14T19:43:55.429Z,23.00
2023-05-14T19:46:42.763Z,23.00
2023-05-14T19:49:30.001Z,22.90
2023-05-14T19:52:17.186Z,22.80
2023-05-14T19:55:04.789Z,22.60
2023-05-14T19:57:52.039Z,22.60
2023-05-14T20:00:39.279Z,22.50
2023-05-14T20:03:26.766Z,22.50
2023-05-14T20:06:14.261Z,22.50
2023-05-14T20:09:01.441Z,22.50
2023-05-14T20:11:48.700Z,22.50
2023-05-14T20:14:36.222Z,22.50
2023-05-14T20:17:23.570Z,22.40
2023-05-14T20:20:12.078Z,22.30
2023-05-14T20:22:59.324Z,22.20
2023-05-14T20:25:49.678Z,22.20
2023-05-14T20:28:37.070Z,22.20
2023-05-14T20:31:24.370Z,22.10
2023-05-14T20:34:11.696Z,22.00
2023-05-14T20:36:58.935Z,22.00
2023-05-14T20:39:49.176Z,21.90
2023-05-14T20:42:36.549Z,21.90
2023-05-14T20:45:23.955Z,21.80
2023-05-14T20:48:15.165Z,21.80
2023-05-14T20:51:04.902Z,21.80
2023-05-14T20:53:52.078Z,21.70
2023-05-14T20:56:39.294Z,21.60
2023-05-14T20:59:26.462Z,21.60
2023-05-14T21:02:13.934Z,21.60
2023-05-14T21:05:01.301Z,21.60
2023-05-14T21:07:48.719Z,21.60
2023-05-14T21:10:35.950Z,21.50
2023-05-14T21:13:23.201Z,21.50
2023-05-14T21:16:12.787Z,21.50
2023-05-14T21:19:00.177Z,21.40
2023-05-14T21:21:47.441Z,21.40
2023-05-14T21:24:34.688Z,21.40
2023-05-14T21:27:22.298Z,21.40
2023-05-14T21:30:10.154Z,21.40
2023-05-14T21:32:57.369Z,21.30
2023-05-14T21:35:44.687Z,21.20
2023-05-14T21:38:32.581Z,21.20
2023-05-14T21:41:19.872Z,21.20
2023-05-14T21:44:07.192Z,21.10
2023-05-14T21:46:54.506Z,21.00
2023-05-14T21:49:42.013Z,21.00
2023-05-14T21:52:29.292Z,20.90
2023-05-14T21:55:16.467Z,21.00
2023-05-14T21:58:03.895Z,20.90
2023-05-14T22:00:51.203Z,20.80
2023-05-14T22:03:38.572Z,20.80
2023-05-14T22:06:25.915Z,20.80
2023-05-14T22:09:13.100Z,20.70
2023-05-14T22:12:00.287Z,20.70
2023-05-14T22:14:47.815Z,20.60
2023-05-14T22:17:35.056Z,20.60
2023-05-14T22:20:22.370Z,20.60
2023-05-14T22:23:09.585Z,20.50
2023-05-14T22:25:57.340Z,20.50
2023-05-14T22:28:44.615Z,20.50
2023-05-14T22:31:31.891Z,20.40
2023-05-14T22:34:19.466Z,20.40
2023-05-14T22:37:06.672Z,20.40
2023-05-14T22:39:53.856Z,20.40
2023-05-14T22:42:41.236Z,20.40
2023-05-14T22:45:28.445Z,20.30
2023-05-14T22:48:15.908Z,20.30
2023-05-14T22:51:03.128Z,20.30
2023-05-14T22:53:50.540Z,20.20
2023-05-14T22:56:38.514Z,20.10
2023-05-14T22:59:25.722Z,20.10
2023-05-14T23:02:13.138Z,20.10
2023-05-14T23:05:00.438Z,20.00
2023-05-14T23:07:47.744Z,20.00
2023-05-14T23:10:38.086Z,20.00
2023-05-14T23:13:25.259Z,19.90
2023-05-14T23:16:12.583Z,20.00
2023-05-14T23:18:59.945Z,19.90
2023-05-14T23:21:47.345Z,19.90
2023-05-14T23:24:34.702Z,19.90
2023-05-14T23:27:22.208Z,19.80
2023-05-14T23:30:10.059Z,19.80
2023-05-14T23:32:57.388Z,19.70
2023-05-14T23:35:44.651Z,19.70
2023-05-14T23:38:32.182Z,19.70
2023-05-14T23:41:19.415Z,19.60
2023-05-14T23:44:07.331Z,19.50
2023-05-14T23:46:54.578Z,19.50
2023-05-14T23:49:41.789Z,19.50
2023-05-14T23:52:28.982Z,19.50
2023-05-14T23:55:16.225Z,19.50
2023-05-14T23:58:03.546Z,19.50
